createdAt,value
2024-01-05T00:01:12.314Z,99587.38
2024-01-05T00:03:15.100Z,99591.81
2024-01-05T00:05:17.867Z,99592.69
2024-01-05T00:07:20.602Z,99593.47
2024-01-05T00:09:23.364Z,99602.13
2024-01-05T00:11:26.219Z,99598.63
2024-01-05T00:13:29.016Z,99601.38
2024-01-05T00:15:31.928Z,99591.66
2024-01-05T00:17:34.934Z,99595.22
2024-01-05T00:19:37.967Z,99604.91
2024-01-05T00:21:40.820Z,99609.44
2024-01-05T00:23:43.611Z,99604.50
2024-01-05T00:25:46.753Z,99605.56
2024-01-05T00:27:52.297Z,99596.94
2024-01-05T00:29:55.118Z,99610.28
2024-01-05T00:31:57.866Z,99615.63
2024-01-05T00:34:01.815Z,99607.41
2024-01-05T00:36:06.610Z,99617.22
2024-01-05T00:38:09.407Z,99615.53
2024-01-05T00:40:12.360Z,99622.97
2024-01-05T00:42:15.116Z,99627.75
2024-01-05T00:44:17.892Z,99621.06
2024-01-05T00:46:20.619Z,99621.09
2024-01-05T00:48:23.677Z,99622.56
2024-01-05T00:50:26.495Z,99618.69
2024-01-05T00:52:29.225Z,99612.91
2024-01-05T00:54:32.060Z,99614.88
2024-01-05T00:56:34.912Z,99606.31
2024-01-05T00:58:37.685Z,99610.88
2024-01-05T01:00:40.592Z,99611.22
2024-01-05T01:02:43.449Z,99615.03
2024-01-05T01:04:46.359Z,99601.72
2024-01-05T01:06:49.329Z,99622.22
2024-01-05T01:08:52.176Z,99622.16
2024-01-05T01:10:55.076Z,99626.41
2024-01-05T01:12:57.789Z,99634.25
2024-01-05T01:15:00.595Z,99625.81
2024-01-05T01:17:03.422Z,99630.47
2024-01-05T01:19:06.296Z,99623.34
2024-01-05T01:21:09.108Z,99618.19
2024-01-05T01:23:11.946Z,99623.03
2024-01-05T01:25:14.703Z,99634.47
2024-01-05T01:27:18.022Z,99628.59
2024-01-05T01:29:20.792Z,99637.41
2024-01-05T01:31:23.720Z,99642.63
2024-01-05T01:33:26.835Z,99655.84
2024-01-05T01:35:29.772Z,99658.63
2024-01-05T01:37:32.666Z,99660.59
2024-01-05T01:39:35.717Z,99664.06
2024-01-05T01:41:38.993Z,99656.59
2024-01-05T01:43:51.198Z,99652.97
2024-01-05T01:46:01.870Z,99663.56
2024-01-05T01:48:05.319Z,99664.50
2024-01-05T01:50:09.106Z,99653.94
2024-01-05T01:52:12.030Z,99655.34
2024-01-05T01:54:15.626Z,99657.63
2024-01-05T01:56:18.433Z,99656.84
2024-01-05T01:58:23.979Z,99653.38
2024-01-05T02:00:26.762Z,99658.19
2024-01-05T02:02:32.225Z,99652.44
2024-01-05T02:04:36.715Z,99652.13
2024-01-05T02:06:40.233Z,99657.91
2024-01-05T02:08:44.619Z,99651.03
2024-01-05T02:10:47.336Z,99652.88
2024-01-05T02:12:50.140Z,99656.72
2024-01-05T02:14:53.303Z,99644.53
2024-01-05T02:16:57.058Z,99631.59
2024-01-05T02:19:00.117Z,99624.88
2024-01-05T02:21:04.990Z,99629.44
2024-01-05T02:23:19.437Z,99629.97
2024-01-05T02:25:22.342Z,99626.59
2024-01-05T02:27:25.666Z,99624.19
2024-01-05T02:29:28.456Z,99619.19
2024-01-05T02:31:31.184Z,99616.94
2024-01-05T02:33:34.033Z,99617.56
2024-01-05T02:35:36.997Z,99614.94
2024-01-05T02:37:44.980Z,99616.59
2024-01-05T02:39:47.810Z,99621.66
2024-01-05T02:41:50.634Z,99616.38
2024-01-05T02:43:53.510Z,99610.22
2024-01-05T02:45:56.285Z,99609.13
2024-01-05T02:47:59.192Z,99620.31
2024-01-05T02:50:02.456Z,99622.00
2024-01-05T02:52:05.564Z,99615.19
2024-01-05T02:54:08.317Z,99617.81
2024-01-05T02:56:20.025Z,99615.91
2024-01-05T02:58:22.772Z,99614.97
2024-01-05T03:00:25.574Z,99615.34
2024-01-05T03:02:28.371Z,99611.13
2024-01-05T03:04:31.127Z,99605.91
2024-01-05T03:06:34.001Z,99607.91
2024-01-05T03:08:36.819Z,99614.94
2024-01-05T03:10:39.533Z,99609.84
2024-01-05T03:12:42.864Z,99621.25
2024-01-05T03:14:45.829Z,99616.59
2024-01-05T03:16:48.556Z,99617.69
2024-01-05T03:18:51.435Z,99618.53
2024-01-05T03:20:54.257Z,99622.25
2024-01-05T03:22:56.996Z,99610.09
2024-01-05T03:24:59.773Z,99608.63
2024-01-05T03:27:02.700Z,99621.34
2024-01-05T03:29:05.518Z,99619.06
2024-01-05T03:31:14.907Z,99621.50
2024-01-05T03:33:21.161Z,99626.88
2024-01-05T03:35:23.969Z,99625.00
2024-01-05T03:37:26.731Z,99628.59
2024-01-05T03:39:29.513Z,99621.63
2024-01-05T03:41:32.268Z,99620.09
2024-01-05T03:43:35.128Z,99624.38
2024-01-05T03:45:38.060Z,99626.94
2024-01-05T03:47:40.990Z,99626.34
2024-01-05T03:49:43.799Z,99629.03
2024-01-05T03:51:46.613Z,99639.09
2024-01-05T03:53:49.389Z,99630.34
2024-01-05T03:55:52.171Z,99638.94
2024-01-05T03:57:55.056Z,99632.84
2024-01-05T03:59:57.816Z,99644.31
2024-01-05T04:02:00.550Z,99643.53
2024-01-05T04:04:03.522Z,99648.09
2024-01-05T04:06:06.427Z,99658.69
2024-01-05T04:08:09.150Z,99659.81
2024-01-05T04:10:11.947Z,99666.66
2024-01-05T04:12:14.737Z,99664.06
2024-01-05T04:14:17.451Z,99675.38
2024-01-05T04:16:20.420Z,99667.00
2024-01-05T04:18:23.289Z,99668.34
2024-01-05T04:20:26.114Z,99663.78
2024-01-05T04:22:32.376Z,99671.22
2024-01-05T04:24:35.306Z,99660.50
2024-01-05T04:26:38.175Z,99644.59
2024-01-05T04:28:40.930Z,99655.53
2024-01-05T04:30:43.726Z,99661.38
2024-01-05T04:32:46.601Z,99659.69
2024-01-05T04:34:49.458Z,99674.44
2024-01-05T04:36:52.216Z,99686.16
2024-01-05T04:38:55.008Z,99679.56
2024-01-05T04:40:58.375Z,99682.94
2024-01-05T04:43:01.112Z,99682.63
2024-01-05T04:45:04.293Z,99672.03
2024-01-05T04:47:07.102Z,99667.47
2024-01-05T04:49:09.894Z,99673.41
2024-01-05T04:51:12.766Z,99669.69
2024-01-05T04:53:15.510Z,99678.28
2024-01-05T04:55:18.258Z,99674.72
2024-01-05T04:57:21.008Z,99671.19
2024-01-05T04:59:23.886Z,99683.03
2024-01-05T05:01:26.660Z,99684.72
2024-01-05T05:03:31.493Z,99682.28
2024-01-05T05:05:34.435Z,99680.63
2024-01-05T05:07:37.959Z,99689.03
2024-01-05T05:09:40.745Z,99688.97
2024-01-05T05:11:43.864Z,99697.63
2024-01-05T05:13:47.192Z,99695.06
2024-01-05T05:15:49.913Z,99690.56
2024-01-05T05:17:55.076Z,99692.25
2024-01-05T05:19:58.025Z,99685.91
2024-01-05T05:22:01.248Z,99699.28
2024-01-05T05:24:04.158Z,99702.13
2024-01-05T05:26:07.147Z,99698.59
2024-01-05T05:28:09.892Z,99695.16
2024-01-05T05:30:12.836Z,99685.28
2024-01-05T05:32:15.942Z,99689.59
2024-01-05T05:34:18.768Z,99695.88
2024-01-05T05:36:21.649Z,99692.94
2024-01-05T05:38:24.486Z,99695.25
2024-01-05T05:40:27.488Z,99701.16
2024-01-05T05:42:30.460Z,99705.75
2024-01-05T05:44:33.266Z,99703.25
2024-01-05T05:46:36.063Z,99706.84
2024-01-05T05:48:38.961Z,99707.78
2024-01-05T05:50:41.830Z,99709.63
2024-01-05T05:52:46.535Z,99712.16
2024-01-05T05:54:49.275Z,99711.09
2024-01-05T05:56:52.096Z,99722.56
2024-01-05T05:58:55.135Z,99718.41
2024-01-05T06:00:57.996Z,99727.25
2024-01-05T06:03:01.024Z,99733.28
2024-01-05T06:05:04.771Z,99731.44
2024-01-05T06:07:07.608Z,99735.75
2024-01-05T06:09:10.414Z,99723.97
2024-01-05T06:11:19.736Z,99730.22
2024-01-05T06:13:22.482Z,99726.91
2024-01-05T06:15:25.231Z,99726.06
2024-01-05T06:17:28.079Z,99724.41
2024-01-05T06:19:31.454Z,99734.81
2024-01-05T06:21:34.365Z,99746.22
2024-01-05T06:23:37.289Z,99749.13
2024-01-05T06:25:40.023Z,99756.31
2024-01-05T06:27:42.807Z,99754.72
2024-01-05T06:29:45.584Z,99742.50
2024-01-05T06:31:48.593Z,99747.91
2024-01-05T06:33:51.452Z,99747.69
2024-01-05T06:35:54.277Z,99753.56
2024-01-05T06:37:57.051Z,99754.56
2024-01-05T06:39:59.805Z,99759.16
2024-01-05T06:42:02.539Z,99751.06
2024-01-05T06:44:05.949Z,99748.34
2024-01-05T06:46:09.129Z,99740.41
2024-01-05T06:48:12.161Z,99738.06
2024-01-05T06:50:15.343Z,99730.16
2024-01-05T06:52:18.272Z,99746.44
2024-01-05T06:54:21.066Z,99742.28
2024-01-05T06:56:24.809Z,99739.00
2024-01-05T06:58:28.897Z,99733.47
2024-01-05T07:00:31.829Z,99740.38
2024-01-05T07:02:34.612Z,99743.66
2024-01-05T07:04:37.349Z,99736.19
2024-01-05T07:06:43.126Z,99732.72
2024-01-05T07:08:46.045Z,99727.41
2024-01-05T07:10:48.836Z,99733.66
2024-01-05T07:12:51.601Z,99747.56
2024-01-05T07:14:54.656Z,99738.75
2024-01-05T07:16:57.485Z,99737.72
2024-01-05T07:19:00.721Z,99722.16
2024-01-05T07:21:04.839Z,99722.88
2024-01-05T07:23:07.620Z,99709.69
2024-01-05T07:25:13.265Z,99722.22
2024-01-05T07:27:18.001Z,99710.03
2024-01-05T07:29:20.872Z,99701.53
2024-01-05T07:31:24.573Z,99698.97
2024-01-05T07:33:27.538Z,99709.25
2024-01-05T07:35:32.285Z,99703.97
2024-01-05T07:37:35.281Z,99691.72
2024-01-05T07:39:38.102Z,99703.19
2024-01-05T07:41:40.976Z,99703.16
2024-01-05T07:43:43.975Z,99696.25
2024-01-05T07:45:47.010Z,99696.03
2024-01-05T07:47:50.411Z,99700.28
2024-01-05T07:49:53.218Z,99709.72
2024-01-05T07:51:56.140Z,99705.09
2024-01-05T07:53:58.924Z,99696.09
2024-01-05T07:56:03.809Z,99697.41
2024-01-05T07:58:06.596Z,99708.03
2024-01-05T08:00:10.350Z,99710.38
2024-01-05T08:02:13.154Z,99707.59
2024-01-05T08:04:15.972Z,99701.41
2024-01-05T08:06:20.116Z,99708.22
2024-01-05T08:08:23.047Z,99702.53
2024-01-05T08:10:25.963Z,99713.19
2024-01-05T08:12:28.813Z,99717.50
2024-01-05T08:14:31.627Z,99726.91
2024-01-05T08:16:35.038Z,99724.75
2024-01-05T08:18:38.338Z,99718.69
2024-01-05T08:20:41.202Z,99724.47
2024-01-05T08:22:43.925Z,99723.09
2024-01-05T08:24:46.714Z,99734.34
2024-01-05T08:26:49.475Z,99728.59
2024-01-05T08:28:52.305Z,99733.56
2024-01-05T08:30:57.663Z,99730.66
2024-01-05T08:33:00.967Z,99735.28
2024-01-05T08:35:04.301Z,99724.22
2024-01-05T08:37:07.094Z,99735.06
2024-01-05T08:39:09.891Z,99738.00
2024-01-05T08:41:12.902Z,99742.63
2024-01-05T08:43:15.710Z,99740.97
2024-01-05T08:45:19.457Z,99739.03
2024-01-05T08:47:22.341Z,99736.50
2024-01-05T08:49:25.453Z,99740.06
2024-01-05T08:51:28.319Z,99737.88
2024-01-05T08:53:31.396Z,99727.06
2024-01-05T08:55:34.309Z,99737.56
2024-01-05T08:57:37.612Z,99738.63
2024-01-05T08:59:40.945Z,99735.63
2024-01-05T09:01:43.726Z,99737.34
2024-01-05T09:03:47.026Z,99740.56
2024-01-05T09:05:49.834Z,99740.19
2024-01-05T09:07:52.665Z,99738.97
2024-01-05T09:09:55.427Z,99736.59
2024-01-05T09:11:58.526Z,99741.38
2024-01-05T09:14:01.315Z,99742.19
2024-01-05T09:16:04.082Z,99742.44
2024-01-05T09:18:07.148Z,99735.97
2024-01-05T09:20:10.617Z,99742.59
2024-01-05T09:22:14.207Z,99760.59
2024-01-05T09:24:17.278Z,99757.81
2024-01-05T09:26:20.091Z,99761.56
2024-01-05T09:28:22.845Z,99766.13
2024-01-05T09:30:25.959Z,99758.03
2024-01-05T09:32:28.847Z,99766.22
2024-01-05T09:34:31.858Z,99764.47
2024-01-05T09:36:40.420Z,99755.09
2024-01-05T09:38:43.486Z,99745.13
2024-01-05T09:40:47.460Z,99737.38
2024-01-05T09:42:51.868Z,99724.47
2024-01-05T09:44:55.297Z,99728.22
2024-01-05T09:46:58.370Z,99725.25
2024-01-05T09:49:05.203Z,99712.41
2024-01-05T09:51:08.848Z,99706.88
2024-01-05T09:53:13.872Z,99699.56
2024-01-05T09:55:16.738Z,99693.63
2024-01-05T09:57:21.905Z,99682.91
2024-01-05T09:59:26.424Z,99688.81
2024-01-05T10:01:32.274Z,99682.59
2024-01-05T10:03:35.369Z,99687.88
2024-01-05T10:05:38.643Z,99675.78
2024-01-05T10:07:45.170Z,99677.38
2024-01-05T10:09:52.614Z,99678.81
2024-01-05T10:11:56.170Z,99679.16
2024-01-05T10:14:04.203Z,99667.56
2024-01-05T10:16:06.986Z,99656.88
2024-01-05T10:18:19.940Z,99657.13
2024-01-05T10:20:28.560Z,99652.09
2024-01-05T10:22:31.626Z,99649.84
2024-01-05T10:24:34.511Z,99651.91
2024-01-05T10:27:02.181Z,99658.72
2024-01-05T10:29:17.343Z,99653.69
2024-01-05T10:31:20.258Z,99640.00
2024-01-05T10:33:23.347Z,99636.06
2024-01-05T10:35:26.205Z,99637.34
2024-01-05T10:37:29.082Z,99628.78
2024-01-05T10:39:32.088Z,99617.13
2024-01-05T10:41:34.879Z,99611.53
2024-01-05T10:43:38.825Z,99606.91
2024-01-05T10:45:43.531Z,99597.53
2024-01-05T10:47:48.634Z,99588.59
2024-01-05T10:49:53.569Z,99594.56
2024-01-05T10:51:57.131Z,99593.34
2024-01-05T10:54:00.440Z,99595.53
2024-01-05T10:56:04.179Z,99590.72
2024-01-05T10:58:10.379Z,99595.50
2024-01-05T11:00:14.638Z,99596.63
2024-01-05T11:02:41.831Z,99582.00
2024-01-05T11:04:48.629Z,99583.34
2024-01-05T11:06:52.966Z,99582.41
2024-01-05T11:08:58.542Z,99579.59
2024-01-05T11:11:25.021Z,99579.72
2024-01-05T11:13:58.486Z,99569.53
2024-01-05T11:16:44.198Z,99560.94
2024-01-05T11:19:10.982Z,99565.38
2024-01-05T11:21:20.637Z,99570.78
2024-01-05T11:23:25.844Z,99557.94
2024-01-05T11:25:29.236Z,99561.03
2024-01-05T11:27:34.779Z,99559.91
2024-01-05T11:29:46.868Z,99556.31
2024-01-05T11:31:49.931Z,99552.94
2024-01-05T11:33:52.826Z,99554.28
2024-01-05T11:35:55.734Z,99550.09
2024-01-05T11:37:59.659Z,99548.72
2024-01-05T11:40:02.471Z,99544.78
2024-01-05T11:42:05.300Z,99535.16
2024-01-05T11:44:35.065Z,99537.16
2024-01-05T11:46:54.133Z,99536.97
2024-01-05T11:48:57.065Z,99534.94
2024-01-05T11:51:00.687Z,99544.81
2024-01-05T11:53:23.822Z,99548.50
2024-01-05T11:55:26.598Z,99542.63
2024-01-05T11:57:29.414Z,99551.63
2024-01-05T11:59:32.195Z,99560.84
2024-01-05T12:01:34.952Z,99558.88
2024-01-05T12:03:39.850Z,99564.25
2024-01-05T12:05:43.648Z,99567.91
2024-01-05T12:07:46.728Z,99569.09
2024-01-05T12:09:53.652Z,99564.06
2024-01-05T12:12:17.464Z,99563.81
2024-01-05T12:14:29.374Z,99559.53
2024-01-05T12:31:28.990Z,99549.81
2024-01-05T12:33:37.175Z,99550.56
2024-01-05T12:35:40.117Z,99536.22
2024-01-05T12:37:55.575Z,99533.41
2024-01-05T12:40:11.558Z,99528.84
2024-01-05T12:42:15.470Z,99523.06
2024-01-05T12:44:18.370Z,99515.25
2024-01-05T12:46:24.146Z,99519.16
2024-01-05T12:48:27.977Z,99509.13
2024-01-05T12:50:31.846Z,99508.44
2024-01-05T12:52:36.971Z,99511.50
2024-01-05T12:54:44.787Z,99511.16
2024-01-05T12:56:49.507Z,99504.91
2024-01-05T12:58:52.347Z,99508.53
2024-01-05T13:00:56.548Z,99509.97
2024-01-05T13:02:59.363Z,99504.28
2024-01-05T13:05:02.105Z,99509.03
2024-01-05T13:07:07.532Z,99506.00
2024-01-05T13:09:10.364Z,99511.88
2024-01-05T13:11:14.466Z,99511.53
2024-01-05T13:13:17.407Z,99508.28
2024-01-05T13:15:20.352Z,99509.91
2024-01-05T13:17:23.142Z,99511.34
2024-01-05T13:19:26.012Z,99505.03
2024-01-05T13:21:32.294Z,99495.69
2024-01-05T13:23:35.214Z,99499.69
2024-01-05T13:25:39.043Z,99500.19
2024-01-05T13:27:42.189Z,99498.66
2024-01-05T13:29:47.739Z,99492.63
2024-01-05T13:31:51.963Z,99491.88
2024-01-05T13:33:54.834Z,99496.44
2024-01-05T13:35:58.121Z,99485.47
2024-01-05T13:38:00.861Z,99488.63
2024-01-05T13:40:04.643Z,99480.63
2024-01-05T13:42:07.449Z,99476.38
2024-01-05T13:44:10.209Z,99479.56
2024-01-05T13:46:12.932Z,99475.25
2024-01-05T13:48:15.966Z,99477.97
2024-01-05T13:50:18.812Z,99476.88
2024-01-05T13:52:21.555Z,99477.75
2024-01-05T13:54:24.312Z,99474.50
2024-01-05T13:56:27.661Z,99470.91
2024-01-05T13:58:31.592Z,99468.69
2024-01-05T14:00:34.446Z,99471.19
2024-01-05T14:02:38.709Z,99472.09
2024-01-05T14:04:41.449Z,99477.63
2024-01-05T14:06:44.233Z,99475.50
2024-01-05T14:08:46.979Z,99471.25
2024-01-05T14:10:49.723Z,99478.72
2024-01-05T14:12:52.816Z,99475.00
2024-01-05T14:14:55.552Z,99472.91
2024-01-05T14:16:58.764Z,99485.53
2024-01-05T14:19:02.811Z,99488.06
2024-01-05T14:21:07.230Z,99468.97
2024-01-05T14:23:10.397Z,99457.72
2024-01-05T14:25:13.366Z,99466.13
2024-01-05T14:27:16.192Z,99461.53
2024-01-05T14:29:19.687Z,99465.94
2024-01-05T14:31:30.534Z,99474.03
2024-01-05T14:33:36.037Z,99472.06
2024-01-05T14:35:38.887Z,99466.22
2024-01-05T14:37:41.757Z,99473.31
2024-01-05T14:39:44.542Z,99487.59
2024-01-05T14:41:47.310Z,99486.78
2024-01-05T14:43:50.053Z,99486.88
2024-01-05T14:45:52.985Z,99485.41
2024-01-05T14:47:55.812Z,99484.72
2024-01-05T14:49:58.693Z,99485.13
2024-01-05T14:52:01.763Z,99495.16
2024-01-05T14:54:04.918Z,99490.56
2024-01-05T14:56:14.374Z,99485.19
2024-01-05T14:58:20.205Z,99485.13
2024-01-05T15:00:23.358Z,99489.44
2024-01-05T15:02:26.284Z,99493.28
2024-01-05T15:04:32.148Z,99501.19
2024-01-05T15:06:36.410Z,99498.34
2024-01-05T15:08:39.251Z,99494.81
2024-01-05T15:10:42.375Z,99493.06
2024-01-05T15:12:45.205Z,99477.06
2024-01-05T15:14:48.023Z,99483.13
2024-01-05T15:16:51.649Z,99485.56
2024-01-05T15:18:54.787Z,99483.78
2024-01-05T15:20:57.687Z,99497.78
2024-01-05T15:23:00.416Z,99491.72
2024-01-05T15:25:03.604Z,99498.19
2024-01-05T15:27:06.398Z,99503.72
2024-01-05T15:29:09.212Z,99493.47
2024-01-05T15:31:22.085Z,99500.41
2024-01-05T15:33:25.180Z,99500.56
2024-01-05T15:35:28.011Z,99499.72
2024-01-05T15:37:30.775Z,99504.66
2024-01-05T15:39:33.520Z,99506.44
2024-01-05T15:41:36.270Z,99498.38
2024-01-05T15:43:39.013Z,99484.28
2024-01-05T15:45:41.790Z,99479.50
2024-01-05T15:47:44.871Z,99480.22
2024-01-05T15:49:48.342Z,99487.19
2024-01-05T15:51:52.021Z,99481.44
2024-01-05T15:53:57.622Z,99473.94
2024-01-05T15:56:02.543Z,99472.09
2024-01-05T15:58:05.305Z,99478.75
2024-01-05T16:00:08.762Z,99484.03
2024-01-05T16:02:14.832Z,99485.38
2024-01-05T16:04:17.769Z,99479.38
2024-01-05T16:06:21.347Z,99483.84
2024-01-05T16:08:24.211Z,99488.81
2024-01-05T16:10:26.974Z,99487.94
2024-01-05T16:12:29.743Z,99485.69
2024-01-05T16:14:32.718Z,99476.34
2024-01-05T16:16:36.340Z,99482.00
2024-01-05T16:18:40.551Z,99477.34
2024-01-05T16:20:46.678Z,99491.22
2024-01-05T16:22:49.894Z,99477.50
2024-01-05T16:24:52.713Z,99479.22
2024-01-05T16:26:56.094Z,99473.00
2024-01-05T16:28:59.141Z,99479.91
2024-01-05T16:31:02.084Z,99477.91
2024-01-05T16:33:05.361Z,99467.47
2024-01-05T16:35:08.568Z,99475.13
2024-01-05T16:37:11.879Z,99479.56
2024-01-05T16:39:17.415Z,99469.25
2024-01-05T16:41:24.841Z,99475.44
2024-01-05T16:43:28.051Z,99482.41
2024-01-05T16:45:30.805Z,99478.84
2024-01-05T16:47:33.682Z,99472.81
2024-01-05T16:49:37.124Z,99478.22
2024-01-05T16:51:40.130Z,99476.50
2024-01-05T16:53:42.921Z,99471.31
2024-01-05T16:55:45.666Z,99468.31
2024-01-05T16:57:53.095Z,99472.81
2024-01-05T16:59:56.306Z,99479.91
2024-01-05T17:01:59.574Z,99478.75
2024-01-05T17:04:08.029Z,99478.06
2024-01-05T17:06:18.786Z,99479.78
2024-01-05T17:08:24.068Z,99479.91
2024-01-05T17:10:28.398Z,99481.56
2024-01-05T17:12:31.309Z,99476.28
2024-01-05T17:14:35.784Z,99481.75
2024-01-05T17:16:38.576Z,99473.00
2024-01-05T17:18:41.480Z,99477.34
2024-01-05T17:20:44.505Z,99473.00
2024-01-05T17:22:47.502Z,99482.22
2024-01-05T17:24:51.409Z,99482.84
2024-01-05T17:26:54.584Z,99481.22
2024-01-05T17:28:59.240Z,99483.16
2024-01-05T17:31:02.910Z,99493.69
2024-01-05T17:33:05.893Z,99475.34
2024-01-05T17:35:09.639Z,99489.44
2024-01-05T17:37:15.537Z,99481.84
2024-01-05T17:39:19.439Z,99482.00
2024-01-05T17:41:22.159Z,99480.22
2024-01-05T17:43:24.892Z,99485.25
2024-01-05T17:45:27.700Z,99491.28
2024-01-05T17:47:30.511Z,99480.00
2024-01-05T17:49:34.121Z,99476.59
2024-01-05T17:51:40.209Z,99482.00
2024-01-05T17:53:44.846Z,99485.41
2024-01-05T17:55:47.700Z,99480.28
2024-01-05T17:57:50.629Z,99481.13
2024-01-05T17:59:53.451Z,99481.09
2024-01-05T18:01:57.197Z,99471.34
2024-01-05T18:04:00.927Z,99477.34
2024-01-05T18:06:09.475Z,99480.00
2024-01-05T18:08:12.301Z,99484.69
2024-01-05T18:10:15.133Z,99490.03
2024-01-05T18:12:17.900Z,99497.84
2024-01-05T18:14:20.647Z,99500.66
2024-01-05T18:16:25.593Z,99495.78
2024-01-05T18:18:28.980Z,99496.75
2024-01-05T18:20:33.393Z,99495.81
2024-01-05T18:22:40.106Z,99491.09
2024-01-05T18:24:44.114Z,99484.53
2024-01-05T18:26:48.824Z,99483.84
2024-01-05T18:28:53.520Z,99487.47
2024-01-05T18:33:27.623Z,99497.94
2024-01-05T18:35:32.006Z,99492.16
2024-01-05T18:37:34.834Z,99493.09
2024-01-05T18:39:41.378Z,99491.97
2024-01-05T18:41:44.490Z,99506.03
2024-01-05T18:43:47.261Z,99500.94
2024-01-05T18:45:50.162Z,99506.31
2024-01-05T18:47:53.748Z,99499.16
2024-01-05T18:49:56.601Z,99502.69
2024-01-05T18:51:59.629Z,99495.25
2024-01-05T18:54:05.658Z,99498.25
2024-01-05T18:56:09.134Z,99493.44
2024-01-05T18:58:12.544Z,99499.84
2024-01-05T19:00:15.991Z,99496.94
2024-01-05T19:02:19.130Z,99495.47
2024-01-05T19:04:22.137Z,99494.19
2024-01-05T19:06:25.375Z,99491.00
2024-01-05T19:08:28.856Z,99501.41
2024-01-05T19:10:31.875Z,99494.66
2024-01-05T19:12:41.915Z,99496.63
2024-01-05T19:14:45.756Z,99489.41
2024-01-05T19:16:48.527Z,99494.94
2024-01-05T19:18:51.639Z,99499.22
2024-01-05T19:20:55.368Z,99497.50
2024-01-05T19:22:58.097Z,99488.00
2024-01-05T19:27:23.006Z,99481.91
2024-01-05T19:29:27.710Z,99490.03
2024-01-05T19:31:31.860Z,99483.44
2024-01-05T19:33:34.792Z,99474.84
2024-01-05T19:35:37.638Z,99479.88
2024-01-05T19:37:43.204Z,99481.00
2024-01-05T19:39:48.032Z,99477.16
2024-01-05T19:41:51.367Z,99469.94
2024-01-05T19:43:54.441Z,99467.66
2024-01-05T19:45:57.274Z,99470.06
2024-01-05T19:48:00.542Z,99465.75
2024-01-05T19:50:03.766Z,99463.13
2024-01-05T19:52:07.296Z,99460.63
2024-01-05T19:54:12.061Z,99459.91
2024-01-05T19:56:19.617Z,99461.53
2024-01-05T19:58:22.691Z,99458.69
2024-01-05T20:00:25.982Z,99455.72
2024-01-05T20:02:28.754Z,99453.69
2024-01-05T20:04:31.705Z,99440.31
2024-01-05T20:06:36.237Z,99450.53
2024-01-05T20:08:39.074Z,99448.41
2024-01-05T20:10:41.817Z,99444.00
2024-01-05T20:12:47.065Z,99440.91
2024-01-05T20:14:50.280Z,99446.06
2024-01-05T20:16:53.356Z,99441.47
2024-01-05T20:18:56.495Z,99455.69
2024-01-05T20:20:59.458Z,99450.63
2024-01-05T20:23:02.826Z,99450.53
2024-01-05T20:25:06.677Z,99453.25
2024-01-05T20:27:10.442Z,99451.75
2024-01-05T20:29:14.621Z,99451.50
2024-01-05T20:31:20.209Z,99456.41
2024-01-05T20:33:25.368Z,99454.66
2024-01-05T20:35:28.196Z,99458.91
2024-01-05T20:37:30.928Z,99457.19
2024-01-05T20:39:33.783Z,99460.00
2024-01-05T20:41:38.674Z,99452.69
2024-01-05T20:43:43.711Z,99448.59
2024-01-05T20:45:46.894Z,99444.34
2024-01-05T20:47:49.867Z,99437.63
2024-01-05T20:49:52.724Z,99437.41
2024-01-05T20:51:55.995Z,99439.03
2024-01-05T20:53:58.914Z,99439.56
2024-01-05T20:56:01.658Z,99438.03
2024-01-05T20:58:04.612Z,99430.34
2024-01-05T21:00:07.844Z,99428.41
2024-01-05T21:02:10.647Z,99427.78
2024-01-05T21:04:16.138Z,99424.41
2024-01-05T21:06:20.105Z,99425.31
2024-01-05T21:08:23.544Z,99420.94
2024-01-05T21:10:26.247Z,99417.56
2024-01-05T21:12:29.597Z,99415.00
2024-01-05T21:14:34.864Z,99421.16
2024-01-05T21:16:46.416Z,99416.00
2024-01-05T21:18:49.243Z,99410.00
2024-01-05T21:20:52.030Z,99415.09
2024-01-05T21:22:56.429Z,99409.03
2024-01-05T21:24:59.196Z,99404.72
2024-01-05T21:27:01.941Z,99411.16
2024-01-05T21:29:04.694Z,99402.53
2024-01-05T21:31:07.846Z,99400.75
2024-01-05T21:33:11.366Z,99406.16
2024-01-05T21:35:14.402Z,99402.78
2024-01-05T21:37:17.113Z,99397.66
2024-01-05T21:39:19.920Z,99395.91
2024-01-05T21:41:24.290Z,99396.50
2024-01-05T21:43:27.096Z,99393.44
2024-01-05T21:45:29.919Z,99393.00
2024-01-05T21:47:32.674Z,99388.41
2024-01-05T21:49:38.944Z,99385.56
2024-01-05T21:51:42.214Z,99379.16
2024-01-05T21:53:44.972Z,99378.41
2024-01-05T21:55:50.396Z,99383.81
2024-01-05T21:57:53.953Z,99379.75
2024-01-05T21:59:56.818Z,99374.06
2024-01-05T22:02:00.236Z,99379.59
2024-01-05T22:04:06.427Z,99375.84
2024-01-05T22:06:09.389Z,99370.47
2024-01-05T22:08:12.202Z,99363.22
2024-01-05T22:10:14.958Z,99360.59
2024-01-05T22:12:17.736Z,99366.63
2024-01-05T22:14:20.739Z,99365.56
2024-01-05T22:16:23.512Z,99363.88
2024-01-05T22:18:26.483Z,99364.44
2024-01-05T22:20:29.339Z,99345.91
2024-01-05T22:22:32.062Z,99341.44
2024-01-05T22:24:34.828Z,99345.69
2024-01-05T22:26:37.980Z,99343.69
2024-01-05T22:28:40.728Z,99340.00
2024-01-05T22:30:43.589Z,99341.94
2024-01-05T22:32:46.371Z,99342.63
2024-01-05T22:34:49.597Z,99332.97
2024-01-05T22:36:52.456Z,99339.84
2024-01-05T22:38:57.613Z,99344.97
2024-01-05T22:41:00.559Z,99339.91
2024-01-05T22:43:03.792Z,99338.59
2024-01-05T22:45:06.897Z,99328.47
2024-01-05T22:47:09.675Z,99335.28
2024-01-05T22:49:12.540Z,99330.53
2024-01-05T22:51:26.381Z,99330.91
2024-01-05T22:53:29.716Z,99326.44
2024-01-05T22:55:32.443Z,99322.75
2024-01-05T22:57:35.222Z,99318.13
2024-01-05T22:59:38.165Z,99326.03
2024-01-05T23:01:40.930Z,99325.28
2024-01-05T23:03:44.392Z,99322.88
2024-01-05T23:05:47.833Z,99319.97
2024-01-05T23:07:53.178Z,99320.31
2024-01-05T23:09:55.926Z,99315.50
2024-01-05T23:11:58.796Z,99318.03
2024-01-05T23:14:01.535Z,99309.69
2024-01-05T23:16:04.586Z,99304.59
2024-01-05T23:18:07.698Z,99316.84
2024-01-05T23:20:10.764Z,99317.44
2024-01-05T23:22:13.567Z,99313.69
2024-01-05T23:24:16.843Z,99313.25
2024-01-05T23:26:20.378Z,99311.09
2024-01-05T23:28:23.223Z,99300.28
2024-01-05T23:30:26.116Z,99303.66
2024-01-05T23:32:28.941Z,99295.81
2024-01-05T23:34:31.813Z,99295.72
2024-01-05T23:36:34.681Z,99291.63
2024-01-05T23:38:38.539Z,99291.91
2024-01-05T23:40:41.683Z,99286.50
2024-01-05T23:42:44.528Z,99282.72
2024-01-05T23:44:47.304Z,99290.47
2024-01-05T23:46:50.041Z,99287.19
2024-01-05T23:48:52.994Z,99278.56
2024-01-05T23:50:56.249Z,99277.19
2024-01-05T23:53:00.605Z,99282.81
2024-01-05T23:55:05.518Z,99272.13
2024-01-05T23:57:11.425Z,99268.22
2024-01-05T23:59:14.444Z,99268.84
